Time;durP1;ratioP1;P1;durP2;ratioP2;P2;SDS_P1;SDS_P2;PMS_P1;PMS_P2;Temp;Humidity;BMP_temperature;BMP_pressure;BME280_temperature;BME280_humidity;BME280_pressure;Samples;Min_cycle;Max_cycle;Signal;HPM_P1;HPM_P2
2021/10/13 00:00:11;;;;;;;14.83;11.40;;;7.80;99.90;;;;;;6174347;23;20448;-87
2021/10/13 00:02:37;;;;;;;14.40;11.80;;;7.80;99.90;;;;;;6174384;23;20387;-87
2021/10/13 00:05:04;;;;;;;14.60;10.37;;;7.90;99.90;;;;;;6173273;23;20957;-87
2021/10/13 00:07:31;;;;;;;15.17;11.37;;;7.90;99.90;;;;;;6174335;23;20928;-87
2021/10/13 00:09:59;;;;;;;13.90;11.23;;;8.00;99.90;;;;;;6176127;23;20756;-88
2021/10/13 00:15:27;;;;;;;10.57;8.80;;;7.90;99.90;;;;;;6201955;23;20417;-87
2021/10/13 00:17:52;;;;;;;12.80;10.10;;;7.90;99.90;;;;;;6175879;23;20408;-88
2021/10/13 00:23:03;;;;;;;11.50;9.57;;;7.90;99.90;;;;;;6204320;23;20180;-88
2021/10/13 00:25:33;;;;;;;10.90;8.80;;;7.90;99.90;;;;;;6176073;23;20407;-87
2021/10/13 00:28:03;;;;;;;13.20;9.90;;;7.90;99.90;;;;;;6175820;23;20442;-87
2021/10/13 00:30:32;;;;;;;10.90;9.37;;;8.00;99.90;;;;;;6175171;23;20805;-87
2021/10/13 00:33:10;;;;;;;16.43;9.63;;;8.00;99.90;;;;;;6203109;23;20422;-87
2021/10/13 00:35:37;;;;;;;11.20;8.77;;;8.00;99.90;;;;;;6175554;23;20466;-87
2021/10/13 00:38:02;;;;;;;12.30;8.97;;;7.90;99.90;;;;;;6176801;23;20459;-87
2021/10/13 00:40:29;;;;;;;12.20;9.00;;;7.90;99.90;;;;;;6176099;23;20167;-87
2021/10/13 00:42:57;;;;;;;10.00;9.00;;;8.00;99.90;;;;;;6175845;23;20490;-87
2021/10/13 00:45:24;;;;;;;10.00;8.80;;;8.00;99.90;;;;;;6201613;23;20386;-87
2021/10/13 00:47:50;;;;;;;11.70;9.13;;;8.00;99.90;;;;;;6175909;23;20394;-87
2021/10/13 00:50:16;;;;;;;11.70;9.77;;;8.00;99.90;;;;;;6149832;23;20486;-87
2021/10/13 00:52:50;;;;;;;10.07;8.43;;;8.10;99.90;;;;;;6176070;23;21050;-87
2021/10/13 00:55:20;;;;;;;13.40;9.07;;;8.10;99.90;;;;;;6171438;23;20436;-87
2021/10/13 00:57:52;;;;;;;11.63;10.00;;;8.20;99.90;;;;;;6177397;23;20414;-87
2021/10/13 01:00:21;;;;;;;11.20;9.20;;;8.20;99.90;;;;;;6175649;23;20403;-87
2021/10/13 01:03:16;;;;;;;10.60;9.40;;;8.30;99.90;;;;;;6175654;23;20801;-86
2021/10/13 01:09:20;;;;;;;10.43;7.83;;;8.30;99.90;;;;;;6195945;23;20445;-86
2021/10/13 01:12:14;;;;;;;12.77;7.47;;;8.30;99.90;;;;;;6175724;23;20768;-87
2021/10/13 01:14:54;;;;;;;9.70;8.10;;;8.40;99.90;;;;;;6176258;23;20402;-86
2021/10/13 01:17:35;;;;;;;9.57;8.57;;;8.20;99.90;;;;;;6188471;23;20441;-88
2021/10/13 01:20:13;;;;;;;11.07;9.40;;;8.10;99.90;;;;;;6175320;23;20401;-88
2021/10/13 01:22:51;;;;;;;10.30;8.07;;;8.10;99.90;;;;;;6175226;23;20827;-88
2021/10/13 01:25:38;;;;;;;9.27;8.27;;;8.10;99.90;;;;;;6174404;23;20398;-88
2021/10/13 01:28:10;;;;;;;12.60;8.70;;;8.10;99.90;;;;;;6175687;23;20406;-88
2021/10/13 01:30:51;;;;;;;11.70;9.93;;;8.20;99.90;;;;;;6175861;23;20398;-88
2021/10/13 01:33:38;;;;;;;11.10;8.47;;;8.00;99.90;;;;;;6175521;23;20395;-87
2021/10/13 01:36:14;;;;;;;10.60;9.17;;;8.00;99.90;;;;;;6174662;23;20958;-88
2021/10/13 01:38:45;;;;;;;10.13;8.50;;;8.00;99.90;;;;;;6175203;23;20397;-88
2021/10/13 01:41:13;;;;;;;9.60;7.80;;;8.00;99.90;;;;;;6175589;23;20394;-87
2021/10/13 01:43:49;;;;;;;10.10;8.63;;;8.00;99.90;;;;;;6201591;23;20461;-87
2021/10/13 01:46:21;;;;;;;12.30;8.33;;;8.00;99.90;;;;;;6173791;23;20397;-87
2021/10/13 01:48:49;;;;;;;9.57;7.80;;;8.10;99.90;;;;;;6175955;23;20402;-87
2021/10/13 01:51:17;;;;;;;9.37;7.80;;;8.00;99.90;;;;;;6175541;23;20398;-87
2021/10/13 01:53:45;;;;;;;9.33;7.87;;;8.10;99.90;;;;;;6175153;23;20452;-87
2021/10/13 01:56:13;;;;;;;9.70;8.13;;;8.10;99.90;;;;;;6174204;23;20449;-87
2021/10/13 01:58:41;;;;;;;9.17;7.60;;;8.00;99.90;;;;;;6175434;23;20515;-87
2021/10/13 02:01:11;;;;;;;9.33;7.40;;;8.00;99.90;;;;;;6175795;23;20406;-87
2021/10/13 02:03:42;;;;;;;10.00;8.47;;;7.90;99.90;;;;;;6175788;23;20405;-88
2021/10/13 02:06:21;;;;;;;9.30;8.10;;;7.90;99.90;;;;;;6173078;23;20399;-88
2021/10/13 02:08:56;;;;;;;11.07;8.63;;;7.70;99.90;;;;;;6150588;23;20408;-87
2021/10/13 02:11:29;;;;;;;10.80;7.87;;;7.70;99.90;;;;;;6152243;23;20389;-88
2021/10/13 02:13:59;;;;;;;10.97;8.50;;;7.70;99.90;;;;;;6149050;23;20406;-87
2021/10/13 02:16:27;;;;;;;10.23;7.10;;;7.70;99.90;;;;;;6174979;23;20455;-87
2021/10/13 02:18:54;;;;;;;7.40;6.63;;;7.80;99.90;;;;;;6201840;23;20388;-87
2021/10/13 02:21:22;;;;;;;9.73;7.37;;;7.80;99.90;;;;;;6174747;23;20399;-86
2021/10/13 02:23:50;;;;;;;10.27;7.90;;;7.80;99.90;;;;;;6150047;23;20416;-87
2021/10/13 02:26:22;;;;;;;8.80;7.90;;;7.70;99.90;;;;;;6175011;23;20412;-87
2021/10/13 02:28:56;;;;;;;11.50;7.77;;;7.70;99.90;;;;;;6174499;23;20395;-88
2021/10/13 02:31:21;;;;;;;11.13;7.50;;;7.70;99.90;;;;;;6175436;23;20395;-87
2021/10/13 02:33:47;;;;;;;9.23;7.40;;;7.60;99.90;;;;;;6174748;23;20796;-87
2021/10/13 02:36:13;;;;;;;8.60;7.70;;;7.60;99.90;;;;;;6174601;23;20282;-87
2021/10/13 02:38:38;;;;;;;8.80;7.83;;;7.60;99.90;;;;;;6175000;23;20222;-87
2021/10/13 02:41:04;;;;;;;10.37;8.43;;;7.60;99.90;;;;;;6174583;23;20679;-86
2021/10/13 02:43:30;;;;;;;7.97;7.17;;;7.60;99.90;;;;;;6175389;23;20173;-87
2021/10/13 02:46:20;;;;;;;7.43;6.50;;;7.60;99.90;;;;;;6181979;23;20174;-86
2021/10/13 02:48:55;;;;;;;7.60;6.57;;;7.60;99.90;;;;;;6178194;23;20475;-87
2021/10/13 02:51:38;;;;;;;9.53;7.80;;;7.60;99.90;;;;;;6174255;23;20732;-87
2021/10/13 02:54:23;;;;;;;10.20;7.30;;;7.60;99.90;;;;;;6174448;23;20401;-87
2021/10/13 02:57:02;;;;;;;9.27;7.10;;;7.60;99.90;;;;;;6173938;23;20443;-86
2021/10/13 02:59:39;;;;;;;8.60;7.70;;;7.50;99.90;;;;;;6202083;23;20398;-87
2021/10/13 03:02:15;;;;;;;9.73;7.97;;;7.50;99.90;;;;;;6199692;23;20409;-87
2021/10/13 03:04:53;;;;;;;9.80;6.87;;;7.40;99.90;;;;;;6173789;23;20687;-88
2021/10/13 03:07:31;;;;;;;10.20;8.23;;;7.30;99.90;;;;;;6172403;23;20400;-88
2021/10/13 03:10:00;;;;;;;9.93;7.50;;;7.30;99.90;;;;;;6174915;23;20400;-87
2021/10/13 03:12:42;;;;;;;9.80;7.90;;;7.30;99.90;;;;;;6175049;23;20401;-88
2021/10/13 03:15:18;;;;;;;9.13;7.70;;;7.30;99.90;;;;;;6174719;23;20438;-88
2021/10/13 03:17:47;;;;;;;10.27;7.77;;;7.30;99.90;;;;;;6150332;23;20437;-87
2021/10/13 03:20:15;;;;;;;9.80;8.27;;;7.30;99.90;;;;;;6173903;23;20403;-87
2021/10/13 03:22:42;;;;;;;10.77;8.93;;;7.30;99.90;;;;;;6174592;23;20917;-87
2021/10/13 03:25:24;;;;;;;8.77;7.87;;;7.40;99.90;;;;;;6174541;23;20459;-87
2021/10/13 03:27:55;;;;;;;11.47;8.20;;;7.30;99.90;;;;;;6201740;23;20899;-88
2021/10/13 03:30:27;;;;;;;11.30;8.60;;;7.30;99.90;;;;;;6198236;23;20399;-88
2021/10/13 03:32:56;;;;;;;11.63;8.30;;;7.30;99.90;;;;;;6150208;23;20489;-87
2021/10/13 03:36:09;;;;;;;11.33;8.30;;;7.30;99.90;;;;;;6200617;23;20432;-88
2021/10/13 03:38:44;;;;;;;10.90;8.00;;;7.30;99.90;;;;;;6200538;23;20610;-89
2021/10/13 03:41:09;;;;;;;10.90;7.90;;;7.30;99.90;;;;;;6174432;23;20467;-88
2021/10/13 03:43:35;;;;;;;15.73;8.00;;;7.30;99.90;;;;;;6176047;23;20421;-87
2021/10/13 03:46:02;;;;;;;9.70;7.70;;;7.30;99.90;;;;;;6176375;23;20164;-87
2021/10/13 03:48:30;;;;;;;9.87;8.13;;;7.30;99.90;;;;;;6173892;23;20479;-88
2021/10/13 03:51:06;;;;;;;10.70;7.70;;;7.30;99.90;;;;;;6177122;23;20800;-87
2021/10/13 03:53:32;;;;;;;9.67;7.50;;;7.20;99.90;;;;;;6176567;23;20438;-88
2021/10/13 03:55:58;;;;;;;9.13;8.20;;;7.30;99.90;;;;;;6175717;23;20451;-87
2021/10/13 03:58:24;;;;;;;10.67;8.43;;;7.30;99.90;;;;;;6176596;23;20163;-87
2021/10/13 04:00:51;;;;;;;11.00;8.50;;;7.30;99.90;;;;;;6171726;23;20591;-87
2021/10/13 04:03:20;;;;;;;10.00;7.90;;;7.30;99.90;;;;;;6151861;23;20401;-86
2021/10/13 04:05:47;;;;;;;9.80;7.90;;;7.30;99.90;;;;;;6175752;23;20686;-87
2021/10/13 04:08:13;;;;;;;8.63;7.53;;;7.30;99.90;;;;;;6175635;23;20405;-88
2021/10/13 04:10:40;;;;;;;10.37;7.63;;;7.30;99.90;;;;;;6172539;23;20464;-87
2021/10/13 04:13:08;;;;;;;13.33;9.00;;;7.30;99.90;;;;;;6172875;23;20172;-87
2021/10/13 04:15:34;;;;;;;8.50;7.37;;;7.30;99.90;;;;;;6179924;23;20406;-86
2021/10/13 04:18:00;;;;;;;10.13;7.70;;;7.30;99.90;;;;;;6180349;23;20399;-89
2021/10/13 04:20:44;;;;;;;10.53;8.53;;;7.40;99.90;;;;;;6173703;23;20189;-89
2021/10/13 04:23:13;;;;;;;9.40;7.50;;;7.30;99.90;;;;;;6172498;23;20568;-88
2021/10/13 04:25:38;;;;;;;8.37;7.50;;;7.30;99.90;;;;;;6198915;23;20394;-88
2021/10/13 04:28:04;;;;;;;8.83;7.97;;;7.30;99.90;;;;;;6174667;23;20903;-86
2021/10/13 04:30:32;;;;;;;13.07;8.37;;;7.20;99.90;;;;;;6171373;23;20175;-86
2021/10/13 04:32:58;;;;;;;41.83;26.67;;;7.10;99.90;;;;;;6193841;23;20403;-86
2021/10/13 04:35:24;;;;;;;27.40;20.67;;;7.10;99.90;;;;;;6174602;23;20398;-85
2021/10/13 04:37:49;;;;;;;29.37;19.47;;;7.00;99.90;;;;;;6175333;23;20179;-86
2021/10/13 04:40:15;;;;;;;15.60;12.37;;;6.90;99.90;;;;;;6177745;23;20458;-88
2021/10/13 04:42:41;;;;;;;18.67;16.37;;;6.90;99.90;;;;;;6176639;23;20174;-88
2021/10/13 04:45:07;;;;;;;12.90;11.70;;;6.90;99.90;;;;;;6203504;23;20511;-88
2021/10/13 04:47:34;;;;;;;11.87;10.67;;;6.90;99.90;;;;;;6177688;23;20194;-87
2021/10/13 04:50:00;;;;;;;13.57;11.70;;;6.80;99.90;;;;;;6176061;23;20416;-84
2021/10/13 04:52:26;;;;;;;13.00;11.73;;;6.80;99.90;;;;;;6176260;23;20858;-86
2021/10/13 04:54:52;;;;;;;12.67;11.37;;;6.80;99.90;;;;;;6175167;23;20838;-85
2021/10/13 04:57:20;;;;;;;15.93;10.20;;;6.80;99.90;;;;;;6175805;23;20200;-86
2021/10/13 04:59:48;;;;;;;13.73;12.00;;;6.80;99.90;;;;;;6174174;23;20170;-84
2021/10/13 05:02:19;;;;;;;13.57;11.20;;;6.80;99.90;;;;;;6172361;23;20402;-87
2021/10/13 05:04:47;;;;;;;12.33;9.70;;;6.80;99.90;;;;;;6174078;23;20461;-86
2021/10/13 05:07:17;;;;;;;13.90;9.70;;;6.80;99.90;;;;;;6203822;23;20395;-86
2021/10/13 05:09:55;;;;;;;13.90;10.57;;;6.80;99.90;;;;;;6204544;23;20650;-86
2021/10/13 05:12:21;;;;;;;16.17;10.90;;;6.70;99.90;;;;;;6182867;23;20409;-87
2021/10/13 05:14:47;;;;;;;12.90;9.53;;;6.70;99.90;;;;;;6180026;23;20405;-87
2021/10/13 05:17:13;;;;;;;15.07;10.10;;;6.70;99.90;;;;;;6181004;23;20219;-86
2021/10/13 05:19:38;;;;;;;15.53;10.43;;;6.60;99.90;;;;;;6181101;23;20164;-87
2021/10/13 05:22:04;;;;;;;15.40;10.30;;;6.60;99.90;;;;;;6179838;23;20254;-87
2021/10/13 05:24:30;;;;;;;15.73;11.70;;;6.50;99.90;;;;;;6180684;23;20166;-87
2021/10/13 05:26:56;;;;;;;18.50;12.47;;;6.50;99.90;;;;;;6181329;23;20410;-87
2021/10/13 05:29:22;;;;;;;17.50;11.17;;;6.40;99.90;;;;;;6180771;23;20474;-86
2021/10/13 05:31:48;;;;;;;18.60;11.50;;;6.40;99.90;;;;;;6180653;23;20711;-87
2021/10/13 05:34:13;;;;;;;16.20;11.57;;;6.40;99.90;;;;;;6180453;23;20395;-85
2021/10/13 05:36:39;;;;;;;19.20;11.43;;;6.40;99.90;;;;;;6181238;23;20195;-86
2021/10/13 05:39:05;;;;;;;15.50;11.50;;;6.40;99.90;;;;;;6180127;23;20163;-86
2021/10/13 05:41:31;;;;;;;19.27;11.17;;;6.40;99.90;;;;;;6180550;23;20164;-87
2021/10/13 05:43:56;;;;;;;18.20;9.93;;;6.40;99.90;;;;;;6181006;23;20242;-86
2021/10/13 05:46:23;;;;;;;14.13;9.70;;;6.40;99.90;;;;;;6192916;23;20413;-88
2021/10/13 05:48:57;;;;;;;18.00;10.63;;;6.40;99.90;;;;;;6185802;23;20590;-90
2021/10/13 05:51:26;;;;;;;15.23;9.37;;;6.40;99.90;;;;;;6177672;23;20408;-85
2021/10/13 05:54:00;;;;;;;17.07;11.47;;;6.40;99.90;;;;;;6176432;23;20724;-90
2021/10/13 05:56:39;;;;;;;15.43;11.30;;;6.40;99.90;;;;;;6179236;23;20190;-87
2021/10/13 06:01:39;;;;;;;17.73;10.97;;;6.50;99.90;;;;;;6177977;23;20465;-86
2021/10/13 06:04:10;;;;;;;12.00;9.00;;;6.50;99.90;;;;;;6175886;23;20457;-88
2021/10/13 06:06:36;;;;;;;17.50;10.03;;;6.60;99.90;;;;;;6174132;23;20494;-88
2021/10/13 06:09:02;;;;;;;12.40;8.40;;;6.50;99.90;;;;;;6175042;23;20481;-89
2021/10/13 06:11:28;;;;;;;11.93;8.80;;;6.60;99.90;;;;;;6174927;23;20187;-89
2021/10/13 06:14:22;;;;;;;25.73;9.17;;;6.60;99.90;;;;;;6173869;23;20400;-89
2021/10/13 06:16:48;;;;;;;18.97;10.40;;;6.70;99.90;;;;;;6175847;23;20247;-87
2021/10/13 06:19:16;;;;;;;17.97;9.70;;;6.80;99.90;;;;;;6175850;23;20404;-87
2021/10/13 06:21:43;;;;;;;9.60;7.53;;;7.00;99.90;;;;;;6174408;23;20170;-88
2021/10/13 06:24:14;;;;;;;10.93;8.27;;;7.00;99.90;;;;;;6178678;23;20435;-88
2021/10/13 06:26:43;;;;;;;10.80;8.40;;;7.20;99.90;;;;;;6173788;23;20477;-89
2021/10/13 06:29:10;;;;;;;11.80;8.23;;;7.30;99.90;;;;;;6176482;23;20435;-88
2021/10/13 06:31:40;;;;;;;11.97;7.90;;;7.40;99.90;;;;;;6176296;23;20407;-88
2021/10/13 06:34:10;;;;;;;11.30;7.57;;;7.50;99.90;;;;;;6172816;23;20882;-88
2021/10/13 06:36:43;;;;;;;8.17;6.67;;;7.60;99.90;;;;;;6176084;23;20435;-89
2021/10/13 06:39:09;;;;;;;10.23;7.30;;;7.60;99.90;;;;;;6199388;23;20392;-88
2021/10/13 06:41:48;;;;;;;8.53;7.47;;;7.80;99.90;;;;;;6175542;23;20402;-88
2021/10/13 06:44:20;;;;;;;9.80;7.77;;;7.90;99.90;;;;;;6172710;23;20216;-88
2021/10/13 06:46:57;;;;;;;10.67;8.43;;;7.90;99.90;;;;;;6177123;23;20405;-88
2021/10/13 06:49:23;;;;;;;11.67;8.70;;;8.00;99.90;;;;;;6151273;23;20398;-88
2021/10/13 06:51:51;;;;;;;11.33;9.50;;;7.90;99.90;;;;;;6200265;23;20431;-89
2021/10/13 06:54:22;;;;;;;13.50;10.30;;;7.90;99.90;;;;;;6149009;23;20735;-88
2021/10/13 06:56:47;;;;;;;13.47;10.10;;;8.00;99.90;;;;;;6167118;23;20447;-88
2021/10/13 06:59:13;;;;;;;12.77;8.50;;;8.00;99.90;;;;;;6174799;23;20908;-87
2021/10/13 07:01:39;;;;;;;11.40;7.87;;;8.00;99.90;;;;;;6179261;23;20266;-88
2021/10/13 07:04:11;;;;;;;13.20;9.20;;;8.10;99.90;;;;;;6180197;23;20164;-89
2021/10/13 07:06:38;;;;;;;13.83;8.93;;;7.90;99.90;;;;;;6182192;23;20421;-89
2021/10/13 07:09:05;;;;;;;9.50;8.30;;;7.80;99.90;;;;;;6181416;23;20406;-89
2021/10/13 07:11:39;;;;;;;11.10;9.37;;;7.70;99.90;;;;;;6154888;23;20877;-88
2021/10/13 07:14:18;;;;;;;10.80;8.20;;;7.80;99.90;;;;;;6178877;23;20404;-89
2021/10/13 07:16:47;;;;;;;10.60;8.70;;;8.00;99.90;;;;;;6189831;23;21401;-88
2021/10/13 07:19:13;;;;;;;14.67;8.77;;;8.20;99.90;;;;;;6213571;23;20398;-89
2021/10/13 07:21:40;;;;;;;11.80;8.30;;;8.20;99.90;;;;;;6208546;23;20880;-89
2021/10/13 07:24:08;;;;;;;11.17;7.53;;;8.20;99.90;;;;;;6181699;23;20207;-88
2021/10/13 07:26:35;;;;;;;15.83;8.53;;;8.20;99.90;;;;;;6181805;23;20452;-87
2021/10/13 07:29:02;;;;;;;9.00;8.03;;;8.20;99.90;;;;;;6211403;23;20406;-84
2021/10/13 07:31:28;;;;;;;8.63;7.60;;;8.20;99.90;;;;;;6180760;23;20398;-84
2021/10/13 07:33:56;;;;;;;9.40;8.40;;;8.10;99.90;;;;;;6182873;23;20953;-86
2021/10/13 07:36:22;;;;;;;9.43;8.30;;;8.00;99.90;;;;;;6199625;23;20479;-87
2021/10/13 07:38:48;;;;;;;12.13;7.93;;;8.10;99.90;;;;;;6181734;23;20917;-85
2021/10/13 07:41:18;;;;;;;11.10;8.00;;;8.30;99.90;;;;;;6181840;23;20472;-87
2021/10/13 07:43:46;;;;;;;8.27;7.43;;;8.70;99.90;;;;;;6182329;23;20167;-86
2021/10/13 07:46:12;;;;;;;10.43;8.80;;;8.80;99.90;;;;;;6180372;23;20516;-85
2021/10/13 07:48:38;;;;;;;9.23;7.33;;;8.80;99.90;;;;;;6174271;23;20880;-86
2021/10/13 07:51:04;;;;;;;11.27;7.27;;;8.80;99.90;;;;;;6176267;23;20398;-85
2021/10/13 07:53:30;;;;;;;8.57;7.10;;;8.80;99.90;;;;;;6180217;23;20760;-84
2021/10/13 07:55:55;;;;;;;8.70;7.80;;;9.10;99.90;;;;;;6178386;23;20233;-85
2021/10/13 07:58:22;;;;;;;9.07;7.67;;;9.20;99.90;;;;;;6180590;23;20173;-85
2021/10/13 08:00:48;;;;;;;11.73;7.70;;;9.40;99.90;;;;;;6181901;23;20218;-85
2021/10/13 08:03:14;;;;;;;68.40;55.47;;;9.50;99.90;;;;;;6180704;23;20758;-88
2021/10/13 08:05:41;;;;;;;40.13;35.90;;;9.60;99.90;;;;;;6182828;23;20633;-88
2021/10/13 08:08:07;;;;;;;10.60;9.50;;;9.50;99.90;;;;;;6181179;23;20556;-88
2021/10/13 08:11:05;;;;;;;10.57;8.83;;;9.40;99.90;;;;;;6180750;23;20514;-89
2021/10/13 08:13:32;;;;;;;9.03;8.07;;;9.30;99.90;;;;;;6185565;23;20864;-89
2021/10/13 08:15:58;;;;;;;10.23;8.30;;;9.30;99.90;;;;;;6184131;23;20531;-88
2021/10/13 08:18:24;;;;;;;12.03;8.60;;;9.40;99.90;;;;;;6180697;23;20402;-91
2021/10/13 08:20:57;;;;;;;10.70;8.47;;;9.70;99.90;;;;;;6209776;23;20548;-89
2021/10/13 08:23:24;;;;;;;9.70;8.07;;;9.60;99.90;;;;;;6182881;23;20410;-89
2021/10/13 08:25:50;;;;;;;9.00;8.10;;;9.80;99.90;;;;;;6183493;23;20739;-89
2021/10/13 08:28:16;;;;;;;12.83;8.20;;;10.10;99.90;;;;;;6182840;23;20426;-89
2021/10/13 08:30:42;;;;;;;10.57;9.47;;;10.30;99.90;;;;;;6180571;23;20906;-88
2021/10/13 08:33:08;;;;;;;12.53;8.87;;;10.40;99.90;;;;;;6182864;23;20206;-87
2021/10/13 08:35:34;;;;;;;12.27;8.20;;;10.40;99.90;;;;;;6182162;23;20163;-89
2021/10/13 08:37:59;;;;;;;9.57;8.37;;;10.30;99.90;;;;;;6183219;23;20172;-92
2021/10/13 08:40:25;;;;;;;8.20;7.40;;;10.30;99.90;;;;;;6184988;23;20163;-88
2021/10/13 08:42:53;;;;;;;7.23;6.13;;;10.60;99.90;;;;;;6181569;23;20170;-89
2021/10/13 08:45:21;;;;;;;8.60;6.07;;;10.70;99.90;;;;;;6207264;23;20160;-88
2021/10/13 08:47:48;;;;;;;10.47;7.17;;;11.40;99.90;;;;;;6193539;23;20399;-87
2021/10/13 08:50:14;;;;;;;10.90;7.40;;;12.30;99.90;;;;;;6187375;23;20406;-88
2021/10/13 08:52:40;;;;;;;7.90;6.47;;;12.80;99.90;;;;;;6181218;23;20449;-87
2021/10/13 08:55:08;;;;;;;6.73;5.00;;;13.20;99.90;;;;;;6179340;23;20184;-90
2021/10/13 08:57:34;;;;;;;4.20;3.80;;;11.90;99.90;;;;;;6182679;23;20528;-86
2021/10/13 09:00:10;;;;;;;6.13;4.00;;;10.60;99.90;;;;;;6180900;23;20410;-88
2021/10/13 09:02:50;;;;;;;6.67;3.83;;;10.10;99.90;;;;;;6183091;23;20676;-88
2021/10/13 09:05:17;;;;;;;6.57;3.87;;;9.80;99.90;;;;;;6181281;23;20399;-88
2021/10/13 09:07:53;;;;;;;5.73;2.93;;;9.50;99.90;;;;;;6180314;23;20391;-88
2021/10/13 09:10:36;;;;;;;5.10;3.50;;;9.30;99.90;;;;;;6181332;23;20787;-88
2021/10/13 09:13:13;;;;;;;6.10;3.93;;;9.20;99.90;;;;;;6181397;23;20422;-91
2021/10/13 09:15:39;;;;;;;4.63;3.40;;;9.10;99.90;;;;;;6206337;23;20465;-89
2021/10/13 09:18:06;;;;;;;6.23;3.10;;;9.10;99.90;;;;;;6180565;23;20773;-89
2021/10/13 09:20:41;;;;;;;4.10;2.90;;;9.20;99.90;;;;;;6183397;23;20679;-88
2021/10/13 09:23:14;;;;;;;5.93;3.63;;;9.30;99.90;;;;;;6181256;23;20406;-89
2021/10/13 09:29:08;;;;;;;3.80;3.40;;;9.90;99.90;;;;;;6197371;23;20399;-89
2021/10/13 09:31:37;;;;;;;5.40;3.07;;;10.20;99.90;;;;;;6180556;23;20406;-89
2021/10/13 09:34:08;;;;;;;3.80;2.83;;;10.30;99.90;;;;;;6180501;23;20407;-89
2021/10/13 09:36:45;;;;;;;4.30;3.37;;;10.60;99.90;;;;;;6195472;23;20442;-88
2021/10/13 09:39:15;;;;;;;2.90;2.60;;;10.70;99.90;;;;;;6182030;23;20395;-89
2021/10/13 09:42:02;;;;;;;3.40;3.10;;;10.80;99.90;;;;;;6182755;23;20402;-89
2021/10/13 09:44:46;;;;;;;6.27;3.20;;;11.30;99.90;;;;;;6177727;23;20404;-89
2021/10/13 09:47:13;;;;;;;3.73;2.80;;;11.70;99.90;;;;;;6177247;23;20401;-87
2021/10/13 09:49:44;;;;;;;3.50;3.20;;;12.30;99.90;;;;;;6178872;23;20403;-86
2021/10/13 09:52:12;;;;;;;4.80;3.60;;;13.00;99.90;;;;;;6179615;23;20574;-86
2021/10/13 09:54:40;;;;;;;4.23;3.40;;;13.90;99.90;;;;;;6181220;23;20423;-87
2021/10/13 09:57:15;;;;;;;5.57;4.03;;;14.10;99.90;;;;;;6181422;23;20466;-89
2021/10/13 09:59:57;;;;;;;3.63;2.57;;;13.10;99.90;;;;;;6179230;23;20402;-88
2021/10/13 10:02:30;;;;;;;3.87;3.57;;;12.90;99.90;;;;;;6176136;23;20402;-90
2021/10/13 10:05:22;;;;;;;3.90;3.60;;;11.80;99.90;;;;;;6172667;23;21082;-90
2021/10/13 10:08:10;;;;;;;3.80;3.33;;;11.40;99.90;;;;;;6162689;23;20918;-91
2021/10/13 10:10:39;;;;;;;6.13;5.40;;;11.60;99.90;;;;;;6170848;23;20579;-90
2021/10/13 10:13:13;;;;;;;5.93;5.33;;;11.90;99.90;;;;;;6173824;23;20398;-89
2021/10/13 10:15:40;;;;;;;5.37;4.83;;;12.00;99.90;;;;;;6173578;23;20493;-88
2021/10/13 10:18:32;;;;;;;6.73;4.80;;;12.10;99.90;;;;;;6180345;23;20490;-88
2021/10/13 10:21:22;;;;;;;7.57;5.60;;;11.80;99.90;;;;;;6210618;23;20498;-89
2021/10/13 10:23:56;;;;;;;7.60;5.90;;;12.00;99.90;;;;;;6169148;23;20395;-89
2021/10/13 10:26:25;;;;;;;7.33;4.87;;;12.20;99.90;;;;;;6172999;23;20407;-90
2021/10/13 10:28:50;;;;;;;5.40;4.03;;;12.20;99.90;;;;;;6172018;23;20441;-88
2021/10/13 10:31:28;;;;;;;4.80;4.33;;;12.30;99.90;;;;;;6173515;23;20861;-88
2021/10/13 10:34:04;;;;;;;5.80;5.20;;;12.00;99.90;;;;;;6172608;23;20174;-88
2021/10/13 10:36:50;;;;;;;5.70;5.20;;;12.50;99.90;;;;;;6195673;23;20956;-90
2021/10/13 10:39:19;;;;;;;6.97;5.40;;;12.70;99.90;;;;;;6189193;23;20417;-90
2021/10/13 10:41:55;;;;;;;5.83;4.10;;;13.20;99.90;;;;;;6170686;23;20445;-88
2021/10/13 10:44:41;;;;;;;7.57;5.43;;;13.80;99.90;;;;;;6170194;23;20414;-88
2021/10/13 10:47:09;;;;;;;6.30;4.73;;;13.80;99.90;;;;;;6172447;23;20802;-88
2021/10/13 10:49:56;;;;;;;7.70;4.07;;;13.30;99.90;;;;;;6170957;23;20386;-87
2021/10/13 10:52:25;;;;;;;6.40;3.07;;;13.00;99.20;;;;;;6173055;23;20419;-85
2021/10/13 10:54:54;;;;;;;3.03;2.73;;;12.40;99.40;;;;;;6171428;23;20895;-90
2021/10/13 10:57:33;;;;;;;3.23;2.90;;;11.00;99.90;;;;;;6173247;23;20450;-88
2021/10/13 11:00:00;;;;;;;3.27;2.90;;;11.20;99.90;;;;;;6172759;23;20417;-89
2021/10/13 11:02:27;;;;;;;4.17;2.10;;;11.60;99.90;;;;;;6173487;23;20464;-87
2021/10/13 11:05:08;;;;;;;1.80;1.40;;;11.80;99.50;;;;;;6175761;23;20402;-89
2021/10/13 11:07:36;;;;;;;2.80;1.30;;;12.40;97.80;;;;;;6175885;23;20390;-90
2021/10/13 11:10:06;;;;;;;2.03;1.10;;;12.90;98.10;;;;;;6177385;23;21016;-89
2021/10/13 11:12:50;;;;;;;21.80;19.43;;;13.20;96.70;;;;;;6199436;23;20395;-90
2021/10/13 11:15:17;;;;;;;2.07;1.73;;;14.10;97.60;;;;;;6176024;23;20402;-87
2021/10/13 11:17:43;;;;;;;1.90;1.20;;;14.20;94.60;;;;;;6174336;23;21016;-88
2021/10/13 11:20:15;;;;;;;1.70;1.60;;;14.40;96.50;;;;;;6174754;23;20405;-86
2021/10/13 11:22:40;;;;;;;5.50;1.30;;;13.80;95.50;;;;;;6173121;23;20422;-87
2021/10/13 11:25:17;;;;;;;1.73;1.60;;;13.80;95.60;;;;;;6173376;23;20411;-86
2021/10/13 11:28:00;;;;;;;2.20;1.83;;;14.60;95.60;;;;;;6173699;23;20284;-87
2021/10/13 11:30:30;;;;;;;2.60;1.80;;;14.40;95.20;;;;;;6174384;23;20402;-89
2021/10/13 11:32:57;;;;;;;3.40;2.43;;;15.10;94.90;;;;;;6171775;23;20920;-88
2021/10/13 11:35:23;;;;;;;2.90;2.20;;;15.10;93.70;;;;;;6172498;23;20703;-88
2021/10/13 11:37:51;;;;;;;2.10;2.00;;;14.10;94.60;;;;;;6174301;23;20530;-87
2021/10/13 11:40:18;;;;;;;3.40;2.73;;;13.50;95.70;;;;;;6170386;23;20473;-86
2021/10/13 11:42:45;;;;;;;4.93;3.40;;;13.00;97.30;;;;;;6173689;23;20483;-88
2021/10/13 11:45:20;;;;;;;8.00;4.90;;;12.30;99.70;;;;;;6174781;23;20475;-87
2021/10/13 11:47:48;;;;;;;6.07;4.20;;;11.80;99.90;;;;;;6172199;23;20968;-88
2021/10/13 11:50:20;;;;;;;4.23;3.03;;;11.70;99.90;;;;;;6186553;23;20697;-87
2021/10/13 11:52:57;;;;;;;5.30;3.67;;;11.70;99.90;;;;;;6174360;23;20494;-87
2021/10/13 11:55:28;;;;;;;6.93;3.67;;;11.20;99.90;;;;;;6170301;23;20390;-87
2021/10/13 11:58:06;;;;;;;5.03;3.20;;;10.80;99.90;;;;;;6173598;23;20991;-89
2021/10/13 12:00:51;;;;;;;6.27;3.83;;;10.80;99.90;;;;;;6172231;23;20546;-90
2021/10/13 12:03:17;;;;;;;5.00;4.20;;;11.10;99.90;;;;;;6175719;23;20418;-89
2021/10/13 12:05:45;;;;;;;4.10;3.80;;;11.10;99.90;;;;;;6173890;23;20896;-91
2021/10/13 12:08:16;;;;;;;4.80;4.40;;;11.20;99.90;;;;;;6175617;23;21250;-90
2021/10/13 12:10:49;;;;;;;6.23;4.87;;;11.20;99.90;;;;;;6175680;23;20386;-89
2021/10/13 12:13:23;;;;;;;6.27;5.67;;;11.40;99.90;;;;;;6168212;23;20410;-88
2021/10/13 12:15:51;;;;;;;6.30;5.13;;;11.60;99.90;;;;;;6201124;23;20390;-88
2021/10/13 12:18:22;;;;;;;5.30;4.50;;;12.30;99.90;;;;;;6173464;23;20414;-90
2021/10/13 12:20:50;;;;;;;4.87;4.37;;;12.90;99.90;;;;;;6175182;23;20441;-88
2021/10/13 12:23:23;;;;;;;3.93;3.63;;;14.10;99.90;;;;;;6174186;23;20815;-91
2021/10/13 12:25:51;;;;;;;3.60;3.30;;;14.50;97.00;;;;;;6200549;23;20505;-91
2021/10/13 12:28:17;;;;;;;3.90;3.30;;;13.70;98.30;;;;;;6174705;23;20401;-92
2021/10/13 12:30:55;;;;;;;3.40;3.10;;;12.80;99.90;;;;;;6176606;23;20579;-91
2021/10/13 12:33:23;;;;;;;2.97;2.23;;;11.90;99.90;;;;;;6177519;23;20509;-92
2021/10/13 12:35:49;;;;;;;4.30;3.90;;;11.10;99.90;;;;;;6172687;23;20390;-90
2021/10/13 12:38:20;;;;;;;5.57;3.20;;;10.20;99.90;;;;;;6175188;23;20406;-89
2021/10/13 12:41:04;;;;;;;2.90;2.33;;;10.00;99.90;;;;;;6174441;23;20422;-90
2021/10/13 12:43:30;;;;;;;3.63;2.47;;;9.90;99.90;;;;;;6174359;23;20459;-89
2021/10/13 12:46:19;;;;;;;2.23;2.13;;;10.00;99.90;;;;;;6173045;23;20493;-88
2021/10/13 12:48:44;;;;;;;3.30;2.10;;;10.20;99.90;;;;;;6174485;23;20174;-85
2021/10/13 12:51:16;;;;;;;2.60;2.23;;;10.40;99.90;;;;;;6174812;23;20733;-89
2021/10/13 12:53:43;;;;;;;2.70;2.50;;;10.40;99.90;;;;;;6172120;23;20673;-87
2021/10/13 12:56:11;;;;;;;1.60;1.40;;;10.50;99.90;;;;;;6173773;23;20441;-84
2021/10/13 12:58:36;;;;;;;1.50;1.40;;;10.40;99.90;;;;;;6177833;23;20414;-87
2021/10/13 13:01:03;;;;;;;2.20;1.07;;;10.60;99.90;;;;;;6178689;23;20610;-89
2021/10/13 13:03:29;;;;;;;1.00;1.00;;;10.70;99.90;;;;;;6177341;23;20274;-87
2021/10/13 13:05:55;;;;;;;3.87;1.13;;;11.20;99.90;;;;;;6176758;23;20461;-86
2021/10/13 13:08:23;;;;;;;4.87;1.00;;;11.90;99.90;;;;;;6176084;23;20182;-88
2021/10/13 13:10:50;;;;;;;2.30;1.53;;;13.40;98.80;;;;;;6178919;23;20222;-86
2021/10/13 13:13:16;;;;;;;2.53;0.70;;;12.80;99.10;;;;;;6178377;23;20395;-85
2021/10/13 13:15:43;;;;;;;1.27;0.50;;;12.20;98.50;;;;;;6176956;23;20410;-87
2021/10/13 13:18:15;;;;;;;2.10;0.90;;;12.30;98.20;;;;;;6175628;23;20484;-88
2021/10/13 13:20:45;;;;;;;1.23;1.10;;;12.90;98.30;;;;;;6187764;23;20492;-89